sensor_id;sensor_type;location;lat;lon;timestamp;pressure;altitude;pressure_sealevel;temperature;humidity
47280;BME280;34064;44.942;0.008;2023-05-12T00:00:51;98871.31;;;15.08;61.10
47280;BME280;34064;44.942;0.008;2023-05-12T00:03:20;98868.50;;;15.10;60.85
47280;BME280;34064;44.942;0.008;2023-05-12T00:05:46;98870.34;;;15.09;60.67
47280;BME280;34064;44.942;0.008;2023-05-12T00:08:12;98869.47;;;15.09;60.73
47280;BME280;34064;44.942;0.008;2023-05-12T00:10:39;98867.09;;;15.06;60.66
47280;BME280;34064;44.942;0.008;2023-05-12T00:13:06;98864.16;;;14.99;61.01
47280;BME280;34064;44.942;0.008;2023-05-12T00:15:35;98865.31;;;14.96;61.00
47280;BME280;34064;44.942;0.008;2023-05-12T00:18:02;98860.94;;;14.95;61.00
47280;BME280;34064;44.942;0.008;2023-05-12T00:20:29;98861.22;;;14.92;61.14
47280;BME280;34064;44.942;0.008;2023-05-12T00:22:55;98860.22;;;14.93;60.91
47280;BME280;34064;44.942;0.008;2023-05-12T00:25:22;98855.88;;;14.92;60.91
47280;BME280;34064;44.942;0.008;2023-05-12T00:27:49;98858.69;;;14.91;61.07
47280;BME280;34064;44.942;0.008;2023-05-12T00:30:15;98851.50;;;14.91;60.94
47280;BME280;34064;44.942;0.008;2023-05-12T00:32:42;98847.13;;;14.90;60.85
47280;BME280;34064;44.942;0.008;2023-05-12T00:35:09;98850.78;;;14.89;60.67
47280;BME280;34064;44.942;0.008;2023-05-12T00:37:36;98855.59;;;14.86;60.74
47280;BME280;34064;44.942;0.008;2023-05-12T00:40:03;98842.97;;;14.78;60.87
47280;BME280;34064;44.942;0.008;2023-05-12T00:42:30;98846.91;;;14.74;60.68
47280;BME280;34064;44.942;0.008;2023-05-12T00:44:58;98845.34;;;14.71;60.75
47280;BME280;34064;44.942;0.008;2023-05-12T00:47:25;98842.13;;;14.68;60.65
47280;BME280;34064;44.942;0.008;2023-05-12T00:49:52;98843.19;;;14.65;60.78
47280;BME280;34064;44.942;0.008;2023-05-12T00:52:19;98841.66;;;14.62;60.67
47280;BME280;34064;44.942;0.008;2023-05-12T00:54:47;98841.25;;;14.57;60.69
47280;BME280;34064;44.942;0.008;2023-05-12T00:57:13;98840.72;;;14.54;60.76
47280;BME280;34064;44.942;0.008;2023-05-12T00:59:40;98835.78;;;14.49;60.81
47280;BME280;34064;44.942;0.008;2023-05-12T01:02:06;98834.78;;;14.50;60.58
47280;BME280;34064;44.942;0.008;2023-05-12T01:04:36;98827.47;;;14.42;60.73
47280;BME280;34064;44.942;0.008;2023-05-12T01:07:09;98824.09;;;14.40;60.45
47280;BME280;34064;44.942;0.008;2023-05-12T01:09:37;98830.44;;;14.29;60.79
47280;BME280;34064;44.942;0.008;2023-05-12T01:12:04;98832.41;;;14.27;60.63
47280;BME280;34064;44.942;0.008;2023-05-12T01:14:31;98828.75;;;14.18;60.84
47280;BME280;34064;44.942;0.008;2023-05-12T01:17:02;98831.84;;;14.14;60.72
47280;BME280;34064;44.942;0.008;2023-05-12T01:19:37;98826.91;;;14.09;60.68
47280;BME280;34064;44.942;0.008;2023-05-12T01:22:07;98831.16;;;14.12;60.77
47280;BME280;34064;44.942;0.008;2023-05-12T01:24:37;98832.81;;;14.13;60.86
47280;BME280;34064;44.942;0.008;2023-05-12T01:27:06;98831.84;;;14.14;60.61
47280;BME280;34064;44.942;0.008;2023-05-12T01:29:34;98836.50;;;14.12;60.80
47280;BME280;34064;44.942;0.008;2023-05-12T01:32:01;98842.66;;;14.12;60.80
47280;BME280;34064;44.942;0.008;2023-05-12T01:34:28;98839.28;;;14.10;60.67
47280;BME280;34064;44.942;0.008;2023-05-12T01:36:55;98840.41;;;14.08;60.73
47280;BME280;34064;44.942;0.008;2023-05-12T01:39:21;98835.50;;;14.03;60.72
47280;BME280;34064;44.942;0.008;2023-05-12T01:41:48;98836.16;;;13.95;60.87
47280;BME280;34064;44.942;0.008;2023-05-12T01:44:14;98834.34;;;13.86;60.73
47280;BME280;34064;44.942;0.008;2023-05-12T01:46:41;98832.22;;;13.80;60.95
47280;BME280;34064;44.942;0.008;2023-05-12T01:49:07;98832.47;;;13.77;60.65
47280;BME280;34064;44.942;0.008;2023-05-12T01:51:34;98830.13;;;13.73;60.81
47280;BME280;34064;44.942;0.008;2023-05-12T01:54:01;98824.63;;;13.75;61.01
47280;BME280;34064;44.942;0.008;2023-05-12T01:56:27;98819.13;;;13.77;60.81
47280;BME280;34064;44.942;0.008;2023-05-12T01:58:54;98820.00;;;13.77;60.77
47280;BME280;34064;44.942;0.008;2023-05-12T02:01:20;98811.13;;;13.77;60.79
47280;BME280;34064;44.942;0.008;2023-05-12T02:03:50;98813.09;;;13.75;60.98
47280;BME280;34064;44.942;0.008;2023-05-12T02:06:16;98815.50;;;13.78;60.66
47280;BME280;34064;44.942;0.008;2023-05-12T02:08:42;98809.16;;;13.79;60.49
47280;BME280;34064;44.942;0.008;2023-05-12T02:11:09;98810.88;;;13.80;60.43
47280;BME280;34064;44.942;0.008;2023-05-12T02:13:36;98811.84;;;13.79;60.49
47280;BME280;34064;44.942;0.008;2023-05-12T02:16:02;98806.34;;;13.70;60.30
47280;BME280;34064;44.942;0.008;2023-05-12T02:18:29;98810.00;;;13.60;60.38
47280;BME280;34064;44.942;0.008;2023-05-12T02:20:55;98809.94;;;13.50;60.62
47280;BME280;34064;44.942;0.008;2023-05-12T02:23:23;98819.22;;;13.46;60.48
47280;BME280;34064;44.942;0.008;2023-05-12T02:25:51;98817.53;;;13.45;60.31
47280;BME280;34064;44.942;0.008;2023-05-12T02:28:18;98816.81;;;13.43;60.48
47280;BME280;34064;44.942;0.008;2023-05-12T02:30:46;98822.28;;;13.41;60.62
47280;BME280;34064;44.942;0.008;2023-05-12T02:33:19;98817.19;;;13.38;60.82
47280;BME280;34064;44.942;0.008;2023-05-12T02:35:48;98813.66;;;13.37;60.56
47280;BME280;34064;44.942;0.008;2023-05-12T02:38:15;98820.00;;;13.36;60.38
47280;BME280;34064;44.942;0.008;2023-05-12T02:40:41;98820.00;;;13.36;60.34
47280;BME280;34064;44.942;0.008;2023-05-12T02:43:08;98817.44;;;13.35;60.34
47280;BME280;34064;44.942;0.008;2023-05-12T02:45:34;98822.22;;;13.31;60.24
47280;BME280;34064;44.942;0.008;2023-05-12T02:48:01;98826.16;;;13.27;60.31
47280;BME280;34064;44.942;0.008;2023-05-12T02:50:28;98823.16;;;13.20;60.17
47280;BME280;34064;44.942;0.008;2023-05-12T02:52:55;98831.81;;;13.13;60.58
47280;BME280;34064;44.942;0.008;2023-05-12T02:55:22;98833.34;;;13.05;60.74
47280;BME280;34064;44.942;0.008;2023-05-12T02:57:49;98836.13;;;13.04;60.23
47280;BME280;34064;44.942;0.008;2023-05-12T03:00:15;98844.47;;;12.89;59.90
47280;BME280;34064;44.942;0.008;2023-05-12T03:02:42;98843.00;;;12.75;60.13
47280;BME280;34064;44.942;0.008;2023-05-12T03:05:08;98848.00;;;12.69;60.34
47280;BME280;34064;44.942;0.008;2023-05-12T03:07:35;98845.47;;;12.67;60.31
47280;BME280;34064;44.942;0.008;2023-05-12T03:10:02;98845.47;;;12.67;60.31
47280;BME280;34064;44.942;0.008;2023-05-12T03:12:29;98835.78;;;12.66;60.20
47280;BME280;34064;44.942;0.008;2023-05-12T03:14:55;98844.59;;;12.67;60.08
47280;BME280;34064;44.942;0.008;2023-05-12T03:17:21;98836.75;;;12.65;60.12
47280;BME280;34064;44.942;0.008;2023-05-12T03:19:48;98838.69;;;12.63;60.15
47280;BME280;34064;44.942;0.008;2023-05-12T03:22:15;98835.34;;;12.61;60.20
47280;BME280;34064;44.942;0.008;2023-05-12T03:24:41;98836.31;;;12.60;60.13
47280;BME280;34064;44.942;0.008;2023-05-12T03:27:08;98829.66;;;12.54;60.08
47280;BME280;34064;44.942;0.008;2023-05-12T03:29:34;98826.53;;;12.49;60.13
47280;BME280;34064;44.942;0.008;2023-05-12T03:32:01;98835.88;;;12.43;60.11
47280;BME280;34064;44.942;0.008;2023-05-12T03:34:28;98837.56;;;12.44;60.19
47280;BME280;34064;44.942;0.008;2023-05-12T03:36:55;98828.84;;;12.42;60.12
47280;BME280;34064;44.942;0.008;2023-05-12T03:39:21;98829.88;;;12.41;60.12
47280;BME280;34064;44.942;0.008;2023-05-12T03:41:49;98830.09;;;12.38;60.21
47280;BME280;34064;44.942;0.008;2023-05-12T03:44:19;98832.06;;;12.36;60.35
47280;BME280;34064;44.942;0.008;2023-05-12T03:46:47;98838.25;;;12.37;60.04
47280;BME280;34064;44.942;0.008;2023-05-12T03:49:13;98830.34;;;12.35;60.27
47280;BME280;34064;44.942;0.008;2023-05-12T03:51:40;98837.91;;;12.30;60.12
47280;BME280;34064;44.942;0.008;2023-05-12T03:54:07;98836.22;;;12.29;60.22
47280;BME280;34064;44.942;0.008;2023-05-12T03:56:34;98837.91;;;12.30;60.03
47280;BME280;34064;44.942;0.008;2023-05-12T03:59:00;98844.56;;;12.24;60.18
47280;BME280;34064;44.942;0.008;2023-05-12T04:01:27;98847.00;;;12.27;60.11
47280;BME280;34064;44.942;0.008;2023-05-12T04:03:53;98846.00;;;12.28;60.15
47280;BME280;34064;44.942;0.008;2023-05-12T04:06:19;98837.03;;;12.29;60.15
47280;BME280;34064;44.942;0.008;2023-05-12T04:08:46;98847.69;;;12.29;60.06
47280;BME280;34064;44.942;0.008;2023-05-12T04:11:12;98843.47;;;12.27;60.06
47280;BME280;34064;44.942;0.008;2023-05-12T04:13:39;98849.03;;;12.24;60.14
47280;BME280;34064;44.942;0.008;2023-05-12T04:16:05;98844.81;;;12.21;60.13
47280;BME280;34064;44.942;0.008;2023-05-12T04:18:32;98847.13;;;12.14;59.95
47280;BME280;34064;44.942;0.008;2023-05-12T04:20:59;98846.09;;;12.06;59.94
47280;BME280;34064;44.942;0.008;2023-05-12T04:23:26;98844.53;;;12.03;59.94
47280;BME280;34064;44.942;0.008;2023-05-12T04:25:52;98844.06;;;11.98;59.88
47280;BME280;34064;44.942;0.008;2023-05-12T04:28:18;98851.28;;;11.96;59.82
47280;BME280;34064;44.942;0.008;2023-05-12T04:30:45;98856.91;;;11.81;59.80
47280;BME280;34064;44.942;0.008;2023-05-12T04:33:12;98866.72;;;11.69;59.78
47280;BME280;34064;44.942;0.008;2023-05-12T04:35:38;98859.84;;;11.55;59.97
47280;BME280;34064;44.942;0.008;2023-05-12T04:38:05;98870.72;;;11.41;60.07
47280;BME280;34064;44.942;0.008;2023-05-12T04:40:31;98870.97;;;11.38;60.08
47280;BME280;34064;44.942;0.008;2023-05-12T04:42:57;98865.66;;;11.38;60.04
47280;BME280;34064;44.942;0.008;2023-05-12T04:45:24;98870.72;;;11.41;59.99
47280;BME280;34064;44.942;0.008;2023-05-12T04:47:50;98870.50;;;11.44;59.96
47280;BME280;34064;44.942;0.008;2023-05-12T04:50:17;98873.75;;;11.48;59.96
47280;BME280;34064;44.942;0.008;2023-05-12T04:52:43;98867.59;;;11.47;60.08
47280;BME280;34064;44.942;0.008;2023-05-12T04:55:09;98873.38;;;11.41;59.84
47280;BME280;34064;44.942;0.008;2023-05-12T04:57:36;98864.06;;;11.35;59.99
47280;BME280;34064;44.942;0.008;2023-05-12T05:00:03;98880.28;;;11.32;60.08
47280;BME280;34064;44.942;0.008;2023-05-12T05:02:31;98876.91;;;11.30;59.98
47280;BME280;34064;44.942;0.008;2023-05-12T05:04:57;98874.25;;;11.30;59.99
47280;BME280;34064;44.942;0.008;2023-05-12T05:07:23;98883.03;;;11.31;59.92
47280;BME280;34064;44.942;0.008;2023-05-12T05:09:50;98878.81;;;11.28;59.85
47280;BME280;34064;44.942;0.008;2023-05-12T05:12:16;98888.63;;;11.28;60.02
47280;BME280;34064;44.942;0.008;2023-05-12T05:14:43;98886.66;;;11.30;59.83
47280;BME280;34064;44.942;0.008;2023-05-12T05:17:09;98885.00;;;11.29;60.25
47280;BME280;34064;44.942;0.008;2023-05-12T05:19:37;98885.47;;;11.34;60.28
47280;BME280;34064;44.942;0.008;2023-05-12T05:22:04;98894.94;;;11.38;60.04
47280;BME280;34064;44.942;0.008;2023-05-12T05:24:30;98893.81;;;11.41;60.04
47280;BME280;34064;44.942;0.008;2023-05-12T05:26:56;98892.88;;;11.42;60.08
47280;BME280;34064;44.942;0.008;2023-05-12T05:29:23;98888.25;;;11.44;60.22
47280;BME280;34064;44.942;0.008;2023-05-12T05:31:51;98887.41;;;11.43;60.60
47280;BME280;34064;44.942;0.008;2023-05-12T05:34:24;98892.25;;;11.49;60.26
47280;BME280;34064;44.942;0.008;2023-05-12T05:36:50;98892.97;;;11.51;60.06
47280;BME280;34064;44.942;0.008;2023-05-12T05:39:20;98896.13;;;11.57;60.23
47280;BME280;34064;44.942;0.008;2023-05-12T05:41:51;98893.19;;;11.60;60.12
47280;BME280;34064;44.942;0.008;2023-05-12T05:44:18;98898.16;;;11.64;60.04
47280;BME280;34064;44.942;0.008;2023-05-12T05:46:44;98901.19;;;11.71;60.09
47280;BME280;34064;44.942;0.008;2023-05-12T05:49:11;98896.69;;;11.71;60.46
47280;BME280;34064;44.942;0.008;2023-05-12T05:51:39;98901.91;;;11.73;60.57
47280;BME280;34064;44.942;0.008;2023-05-12T05:54:09;98897.06;;;11.78;60.38
47280;BME280;34064;44.942;0.008;2023-05-12T05:56:35;98893.19;;;11.82;60.28
47280;BME280;34064;44.942;0.008;2023-05-12T05:59:04;98892.69;;;11.89;60.16
47280;BME280;34064;44.942;0.008;2023-05-12T06:01:32;98889.06;;;11.90;61.12
47280;BME280;34064;44.942;0.008;2023-05-12T06:03:58;98880.56;;;11.96;60.28
47280;BME280;34064;44.942;0.008;2023-05-12T06:06:25;98875.16;;;11.97;60.53
47280;BME280;34064;44.942;0.008;2023-05-12T06:08:51;98875.53;;;12.04;60.21
47280;BME280;34064;44.942;0.008;2023-05-12T06:11:20;98872.09;;;12.13;60.26
47280;BME280;34064;44.942;0.008;2023-05-12T06:13:47;98875.09;;;12.20;60.31
47280;BME280;34064;44.942;0.008;2023-05-12T06:16:13;98873.50;;;12.29;60.53
47280;BME280;34064;44.942;0.008;2023-05-12T06:18:40;98864.00;;;12.36;60.55
47280;BME280;34064;44.942;0.008;2023-05-12T06:21:06;98857.91;;;12.45;60.20
47280;BME280;34064;44.942;0.008;2023-05-12T06:23:33;98863.59;;;12.52;61.05
47280;BME280;34064;44.942;0.008;2023-05-12T06:25:59;98860.28;;;12.60;61.45
47280;BME280;34064;44.942;0.008;2023-05-12T06:28:25;98852.22;;;12.71;60.29
47280;BME280;34064;44.942;0.008;2023-05-12T06:30:52;98852.44;;;12.79;60.49
47280;BME280;34064;44.942;0.008;2023-05-12T06:33:18;98852.63;;;12.88;60.03
47280;BME280;34064;44.942;0.008;2023-05-12T06:35:44;98851.69;;;12.99;60.03
47280;BME280;34064;44.942;0.008;2023-05-12T06:38:11;98850.16;;;13.06;60.35
47280;BME280;34064;44.942;0.008;2023-05-12T06:40:37;98858.75;;;13.09;62.04
47280;BME280;34064;44.942;0.008;2023-05-12T06:43:04;98846.00;;;13.13;62.23
47280;BME280;34064;44.942;0.008;2023-05-12T06:45:36;98844.69;;;13.29;61.28
47280;BME280;34064;44.942;0.008;2023-05-12T06:48:11;98847.66;;;13.35;61.40
47280;BME280;34064;44.942;0.008;2023-05-12T06:50:37;98842.22;;;13.47;61.16
47280;BME280;34064;44.942;0.008;2023-05-12T06:53:04;98832.88;;;13.62;61.12
47280;BME280;34064;44.942;0.008;2023-05-12T06:55:31;98823.75;;;13.75;60.98
47280;BME280;34064;44.942;0.008;2023-05-12T06:57:57;98820.72;;;13.89;61.50
47280;BME280;34064;44.942;0.008;2023-05-12T07:00:25;98815.25;;;14.00;61.29
47280;BME280;34064;44.942;0.008;2023-05-12T07:02:51;98820.59;;;14.10;60.93
47280;BME280;34064;44.942;0.008;2023-05-12T07:05:18;98810.59;;;14.22;60.98
47280;BME280;34064;44.942;0.008;2023-05-12T07:07:44;98806.09;;;14.32;60.88
47280;BME280;34064;44.942;0.008;2023-05-12T07:10:11;98804.97;;;14.45;60.90
47280;BME280;34064;44.942;0.008;2023-05-12T07:12:39;98805.25;;;14.51;60.95
47280;BME280;34064;44.942;0.008;2023-05-12T07:15:06;98809.91;;;14.59;61.02
47280;BME280;34064;44.942;0.008;2023-05-12T07:17:33;98805.22;;;14.61;61.28
47280;BME280;34064;44.942;0.008;2023-05-12T07:19:59;98798.47;;;14.77;61.14
47280;BME280;34064;44.942;0.008;2023-05-12T07:22:26;98793.09;;;14.96;60.96
47280;BME280;34064;44.942;0.008;2023-05-12T07:24:52;98791.00;;;15.18;60.95
47280;BME280;34064;44.942;0.008;2023-05-12T07:27:19;98790.13;;;15.27;61.19
47280;BME280;34064;44.942;0.008;2023-05-12T07:29:45;98790.22;;;15.36;60.91
47280;BME280;34064;44.942;0.008;2023-05-12T07:32:11;98788.94;;;15.40;61.13
47280;BME280;34064;44.942;0.008;2023-05-12T07:34:38;98794.00;;;15.43;61.05
47280;BME280;34064;44.942;0.008;2023-05-12T07:37:04;98794.84;;;15.43;60.78
47280;BME280;34064;44.942;0.008;2023-05-12T07:39:31;98787.34;;;15.47;60.83
47280;BME280;34064;44.942;0.008;2023-05-12T07:41:58;98778.81;;;15.62;60.35
47280;BME280;34064;44.942;0.008;2023-05-12T07:44:25;98773.56;;;15.70;60.23
47280;BME280;34064;44.942;0.008;2023-05-12T07:46:51;98767.88;;;15.73;59.88
47280;BME280;34064;44.942;0.008;2023-05-12T07:49:17;98768.38;;;15.86;59.74
47280;BME280;34064;44.942;0.008;2023-05-12T07:51:44;98755.59;;;15.98;59.57
47280;BME280;34064;44.942;0.008;2023-05-12T07:54:10;98762.41;;;16.11;59.68
47280;BME280;34064;44.942;0.008;2023-05-12T07:56:37;98755.97;;;16.21;59.64
47280;BME280;34064;44.942;0.008;2023-05-12T07:59:03;98755.56;;;16.34;59.36
47280;BME280;34064;44.942;0.008;2023-05-12T08:01:30;98758.69;;;16.48;59.55
47280;BME280;34064;44.942;0.008;2023-05-12T08:03:56;98756.22;;;16.55;58.41
47280;BME280;34064;44.942;0.008;2023-05-12T08:06:22;98755.28;;;16.64;58.56
47280;BME280;34064;44.942;0.008;2023-05-12T08:08:49;98751.59;;;16.65;58.51
47280;BME280;34064;44.942;0.008;2023-05-12T08:11:15;98761.16;;;16.67;58.29
47280;BME280;34064;44.942;0.008;2023-05-12T08:13:41;98752.66;;;16.72;58.45
47280;BME280;34064;44.942;0.008;2023-05-12T08:16:08;98757.75;;;16.83;58.33
47280;BME280;34064;44.942;0.008;2023-05-12T08:18:34;98754.41;;;16.90;58.09
47280;BME280;34064;44.942;0.008;2023-05-12T08:21:01;98753.81;;;16.96;58.13
47280;BME280;34064;44.942;0.008;2023-05-12T08:23:27;98753.44;;;16.91;57.93
47280;BME280;34064;44.942;0.008;2023-05-12T08:25:53;98757.28;;;16.88;57.80
47280;BME280;34064;44.942;0.008;2023-05-12T08:28:19;98761.78;;;16.88;57.92
47280;BME280;34064;44.942;0.008;2023-05-12T08:30:46;98757.41;;;16.87;57.76
47280;BME280;34064;44.942;0.008;2023-05-12T08:33:13;98760.09;;;16.87;57.49
47280;BME280;34064;44.942;0.008;2023-05-12T08:35:39;98760.78;;;16.89;57.28
47280;BME280;34064;44.942;0.008;2023-05-12T08:38:06;98762.88;;;16.95;57.38
47280;BME280;34064;44.942;0.008;2023-05-12T08:40:37;98754.69;;;17.05;57.23
47280;BME280;34064;44.942;0.008;2023-05-12T08:43:30;98757.63;;;17.20;56.90
47280;BME280;34064;44.942;0.008;2023-05-12T08:45:56;98740.88;;;17.34;56.86
47280;BME280;34064;44.942;0.008;2023-05-12T08:48:25;98741.59;;;17.44;56.24
47280;BME280;34064;44.942;0.008;2023-05-12T08:50:53;98734.91;;;17.57;55.88
47280;BME280;34064;44.942;0.008;2023-05-12T08:53:20;98735.81;;;17.74;55.69
47280;BME280;34064;44.942;0.008;2023-05-12T08:55:48;98724.28;;;17.98;55.68
47280;BME280;34064;44.942;0.008;2023-05-12T08:58:15;98720.56;;;18.07;55.48
47280;BME280;34064;44.942;0.008;2023-05-12T09:00:42;98723.91;;;18.09;54.58
47280;BME280;34064;44.942;0.008;2023-05-12T09:03:12;98724.59;;;18.12;54.44
47280;BME280;34064;44.942;0.008;2023-05-12T09:05:40;98722.91;;;18.19;54.55
47280;BME280;34064;44.942;0.008;2023-05-12T09:08:09;98728.63;;;18.32;54.75
47280;BME280;34064;44.942;0.008;2023-05-12T09:10:36;98709.75;;;18.57;53.90
47280;BME280;34064;44.942;0.008;2023-05-12T09:13:19;98701.47;;;18.75;53.61
47280;BME280;34064;44.942;0.008;2023-05-12T09:15:48;98694.72;;;18.88;53.11
47280;BME280;34064;44.942;0.008;2023-05-12T09:18:18;98700.75;;;18.90;53.15
47280;BME280;34064;44.942;0.008;2023-05-12T09:20:45;98702.31;;;18.84;53.20
47280;BME280;34064;44.942;0.008;2023-05-12T09:23:15;98703.47;;;18.81;53.04
47280;BME280;34064;44.942;0.008;2023-05-12T09:25:42;98702.94;;;18.86;52.57
47280;BME280;34064;44.942;0.008;2023-05-12T09:28:08;98706.78;;;18.92;52.12
47280;BME280;34064;44.942;0.008;2023-05-12T09:30:35;98708.31;;;18.94;51.67
47280;BME280;34064;44.942;0.008;2023-05-12T09:33:13;98718.41;;;18.92;52.29
47280;BME280;34064;44.942;0.008;2023-05-12T09:35:44;98703.56;;;19.05;52.06
47280;BME280;34064;44.942;0.008;2023-05-12T09:38:11;98701.84;;;19.20;52.22
47280;BME280;34064;44.942;0.008;2023-05-12T09:40:38;98693.69;;;19.37;51.90
47280;BME280;34064;44.942;0.008;2023-05-12T09:43:08;98679.75;;;19.56;51.22
47280;BME280;34064;44.942;0.008;2023-05-12T09:45:38;98682.72;;;19.61;51.02
47280;BME280;34064;44.942;0.008;2023-05-12T09:48:11;98677.66;;;19.67;51.08
47280;BME280;34064;44.942;0.008;2023-05-12T09:50:43;98681.03;;;19.69;51.01
47280;BME280;34064;44.942;0.008;2023-05-12T09:53:10;98678.44;;;19.75;50.96
47280;BME280;34064;44.942;0.008;2023-05-12T09:55:36;98681.25;;;19.82;50.53
47280;BME280;34064;44.942;0.008;2023-05-12T09:58:08;98680.56;;;19.88;49.78
47280;BME280;34064;44.942;0.008;2023-05-12T10:00:36;98674.84;;;19.83;48.78
47280;BME280;34064;44.942;0.008;2023-05-12T10:03:12;98683.34;;;19.72;48.73
47280;BME280;34064;44.942;0.008;2023-05-12T10:05:51;98679.44;;;19.74;49.32
47280;BME280;34064;44.942;0.008;2023-05-12T10:08:24;98681.97;;;19.76;49.63
47280;BME280;34064;44.942;0.008;2023-05-12T10:10:53;98673.69;;;19.77;49.71
47280;BME280;34064;44.942;0.008;2023-05-12T10:13:23;98676.34;;;19.86;49.57
47280;BME280;34064;44.942;0.008;2023-05-12T10:15:53;98669.78;;;19.88;49.28
47280;BME280;34064;44.942;0.008;2023-05-12T10:18:21;98667.38;;;19.93;49.04
47280;BME280;34064;44.942;0.008;2023-05-12T10:20:51;98663.78;;;20.01;48.77
47280;BME280;34064;44.942;0.008;2023-05-12T10:23:19;98647.91;;;20.21;49.33
47280;BME280;34064;44.942;0.008;2023-05-12T10:25:50;98640.31;;;20.40;48.55
47280;BME280;34064;44.942;0.008;2023-05-12T10:28:30;98627.94;;;20.61;48.29
47280;BME280;34064;44.942;0.008;2023-05-12T10:30:58;98614.81;;;20.87;47.20
47280;BME280;34064;44.942;0.008;2023-05-12T10:33:26;98618.53;;;20.86;47.68
47280;BME280;34064;44.942;0.008;2023-05-12T10:35:54;98621.25;;;20.86;48.10
47280;BME280;34064;44.942;0.008;2023-05-12T10:38:21;98619.66;;;20.77;47.62
47280;BME280;34064;44.942;0.008;2023-05-12T10:40:52;98630.00;;;20.73;46.15
47280;BME280;34064;44.942;0.008;2023-05-12T10:43:27;98624.31;;;20.83;44.89
47280;BME280;34064;44.942;0.008;2023-05-12T10:49:07;98590.91;;;21.43;44.97
47280;BME280;34064;44.942;0.008;2023-05-12T10:51:47;98579.53;;;21.69;44.10
47280;BME280;34064;44.942;0.008;2023-05-12T10:54:23;98584.44;;;21.59;43.06
47280;BME280;34064;44.942;0.008;2023-05-12T10:56:50;98601.22;;;21.32;44.88
47280;BME280;34064;44.942;0.008;2023-05-12T10:59:24;98585.19;;;21.53;44.43
47280;BME280;34064;44.942;0.008;2023-05-12T11:07:27;98558.69;;;22.20;42.48
47280;BME280;34064;44.942;0.008;2023-05-12T11:09:57;98552.06;;;22.29;41.45
47280;BME280;34064;44.942;0.008;2023-05-12T11:12:25;98557.88;;;22.26;40.57
47280;BME280;34064;44.942;0.008;2023-05-12T11:14:57;98564.00;;;22.06;41.78
47280;BME280;34064;44.942;0.008;2023-05-12T11:17:25;98585.06;;;21.83;42.36
47280;BME280;34064;44.942;0.008;2023-05-12T11:19:52;98604.22;;;21.44;42.77
47280;BME280;34064;44.942;0.008;2023-05-12T11:22:21;98629.13;;;21.03;43.30
47280;BME280;34064;44.942;0.008;2023-05-12T11:24:48;98643.59;;;20.80;44.11
47280;BME280;34064;44.942;0.008;2023-05-12T11:27:17;98652.78;;;20.56;44.94
47280;BME280;34064;44.942;0.008;2023-05-12T11:29:54;98676.28;;;20.32;45.12
47280;BME280;34064;44.942;0.008;2023-05-12T11:32:20;98675.25;;;20.18;45.70
47280;BME280;34064;44.942;0.008;2023-05-12T11:34:48;98674.66;;;20.08;45.71
47280;BME280;34064;44.942;0.008;2023-05-12T11:37:15;98690.31;;;19.89;46.65
47280;BME280;34064;44.942;0.008;2023-05-12T11:39:45;98726.41;;;19.80;47.47
47280;BME280;34064;44.942;0.008;2023-05-12T11:42:12;98748.41;;;19.60;47.19
47280;BME280;34064;44.942;0.008;2023-05-12T11:44:47;98772.34;;;19.24;46.58
47280;BME280;34064;44.942;0.008;2023-05-12T11:47:14;98787.03;;;18.88;46.98
47280;BME280;34064;44.942;0.008;2023-05-12T11:49:53;98805.75;;;18.48;48.86
47280;BME280;34064;44.942;0.008;2023-05-12T11:52:24;98814.97;;;18.04;50.29
47280;BME280;34064;44.942;0.008;2023-05-12T11:54:58;98830.47;;;17.76;51.24
47280;BME280;34064;44.942;0.008;2023-05-12T11:57:33;98831.91;;;17.54;51.84
47280;BME280;34064;44.942;0.008;2023-05-12T12:00:07;98834.91;;;17.42;52.63
47280;BME280;34064;44.942;0.008;2023-05-12T12:02:36;98825.63;;;17.28;52.77
47280;BME280;34064;44.942;0.008;2023-05-12T12:05:14;98838.97;;;17.20;54.05
47280;BME280;34064;44.942;0.008;2023-05-12T12:07:41;98849.13;;;17.08;54.13
47280;BME280;34064;44.942;0.008;2023-05-12T12:10:17;98853.00;;;16.88;55.38
47280;BME280;34064;44.942;0.008;2023-05-12T12:12:44;98856.66;;;16.87;54.34
47280;BME280;34064;44.942;0.008;2023-05-12T12:15:11;98845.63;;;16.90;54.24
47280;BME280;34064;44.942;0.008;2023-05-12T12:17:38;98834.97;;;16.98;54.49
47280;BME280;34064;44.942;0.008;2023-05-12T12:20:05;98819.63;;;17.08;54.18
47280;BME280;34064;44.942;0.008;2023-05-12T12:22:33;98808.09;;;17.16;54.23
47280;BME280;34064;44.942;0.008;2023-05-12T12:25:13;98805.94;;;17.20;54.74
47280;BME280;34064;44.942;0.008;2023-05-12T12:27:46;98806.63;;;17.22;55.66
47280;BME280;34064;44.942;0.008;2023-05-12T12:30:23;98808.31;;;17.23;55.73
47280;BME280;34064;44.942;0.008;2023-05-12T12:32:55;98803.97;;;17.30;54.94
47280;BME280;34064;44.942;0.008;2023-05-12T12:35:24;98788.88;;;17.37;54.86
47280;BME280;34064;44.942;0.008;2023-05-12T12:37:51;98786.75;;;17.49;54.65
47280;BME280;34064;44.942;0.008;2023-05-12T12:40:18;98771.03;;;17.62;54.77
47280;BME280;34064;44.942;0.008;2023-05-12T12:42:48;98767.19;;;17.82;54.65
47280;BME280;34064;44.942;0.008;2023-05-12T12:45:21;98756.16;;;18.01;54.40
47280;BME280;34064;44.942;0.008;2023-05-12T12:47:51;98744.09;;;18.14;54.56
47280;BME280;34064;44.942;0.008;2023-05-12T12:50:19;98749.47;;;18.22;54.53
47280;BME280;34064;44.942;0.008;2023-05-12T12:52:46;98741.22;;;18.23;54.53
47280;BME280;34064;44.942;0.008;2023-05-12T12:55:15;98744.44;;;18.27;54.71
47280;BME280;34064;44.942;0.008;2023-05-12T12:57:42;98739.72;;;18.29;55.52
47280;BME280;34064;44.942;0.008;2023-05-12T13:00:11;98737.88;;;18.38;55.78
47280;BME280;34064;44.942;0.008;2023-05-12T13:02:38;98730.59;;;18.47;56.01
47280;BME280;34064;44.942;0.008;2023-05-12T13:05:07;98725.56;;;18.60;55.41
47280;BME280;34064;44.942;0.008;2023-05-12T13:07:34;98722.50;;;18.71;55.21
47280;BME280;34064;44.942;0.008;2023-05-12T13:10:02;98716.44;;;18.78;55.24
47280;BME280;34064;44.942;0.008;2023-05-12T13:12:31;98723.16;;;18.82;54.68